Time;durP1;ratioP1;P1;durP2;ratioP2;P2;SDS_P1;SDS_P2;PMS_P1;PMS_P2;Temp;Humidity;BMP_temperature;BMP_pressure;BME280_temperature;BME280_humidity;BME280_pressure;Samples;Min_cycle;Max_cycle;Signal;HPM_P1;HPM_P2
2023/07/13 00:01:28;;;;;;;11.30;2.47;;;16.10;99.90;;;;;;5100666;27;20035;-66
2023/07/13 00:03:54;;;;;;;10.10;2.22;;;16.10;99.90;;;;;;5139932;27;20042;-66
2023/07/13 00:06:20;;;;;;;7.22;1.92;;;16.10;99.90;;;;;;5127386;27;20059;-64
2023/07/13 00:08:47;;;;;;;10.52;2.47;;;16.10;99.90;;;;;;5141532;27;20043;-66
2023/07/13 00:11:14;;;;;;;10.48;2.53;;;16.00;99.90;;;;;;5111199;28;20046;-65
2023/07/13 00:13:40;;;;;;;10.35;2.50;;;16.00;99.90;;;;;;5110918;27;20486;-65
2023/07/13 00:16:06;;;;;;;9.60;2.20;;;16.00;99.90;;;;;;5093234;28;20541;-66
2023/07/13 00:18:32;;;;;;;7.88;2.60;;;16.00;99.90;;;;;;5108726;27;20056;-65
2023/07/13 00:21:05;;;;;;;9.70;2.60;;;16.00;99.90;;;;;;5109982;28;20146;-66
2023/07/13 00:23:41;;;;;;;12.57;1.90;;;16.00;99.90;;;;;;5101301;27;20481;-65
2023/07/13 00:26:09;;;;;;;11.45;2.47;;;16.00;99.90;;;;;;5129220;27;20051;-65
2023/07/13 00:28:35;;;;;;;12.05;2.25;;;16.00;99.90;;;;;;5108947;28;20043;-66
2023/07/13 00:31:01;;;;;;;10.13;2.30;;;16.00;99.90;;;;;;5103861;27;20044;-66
2023/07/13 00:33:30;;;;;;;12.52;2.53;;;16.00;99.90;;;;;;5110200;27;20117;-65
2023/07/13 00:35:56;;;;;;;9.73;2.33;;;16.00;99.90;;;;;;5130690;27;20036;-65
2023/07/13 00:38:23;;;;;;;15.20;2.92;;;16.00;99.90;;;;;;5137866;27;20100;-64
2023/07/13 00:40:49;;;;;;;12.23;2.67;;;16.00;99.90;;;;;;5104740;27;20461;-65
2023/07/13 00:43:19;;;;;;;9.02;2.45;;;16.00;99.90;;;;;;5103825;27;20028;-66
2023/07/13 00:45:45;;;;;;;9.73;2.38;;;15.90;99.90;;;;;;5129397;27;20744;-64
2023/07/13 00:48:19;;;;;;;8.68;2.30;;;15.90;99.90;;;;;;5100202;27;20046;-65
2023/07/13 00:50:48;;;;;;;8.73;2.28;;;15.90;99.90;;;;;;5108736;27;20067;-65
2023/07/13 00:53:14;;;;;;;8.95;2.60;;;15.90;99.90;;;;;;5130001;27;20131;-65
2023/07/13 00:55:40;;;;;;;9.27;2.20;;;15.80;99.90;;;;;;5110071;28;20114;-65
2023/07/13 00:58:06;;;;;;;10.68;2.45;;;15.90;99.90;;;;;;5108874;28;20048;-65
2023/07/13 01:00:34;;;;;;;8.68;2.42;;;15.90;99.90;;;;;;5109376;28;20836;-64
2023/07/13 01:03:04;;;;;;;10.80;3.17;;;15.80;99.90;;;;;;5093469;28;20043;-65
2023/07/13 01:05:31;;;;;;;8.82;2.38;;;15.80;99.90;;;;;;5103302;27;20047;-65
2023/07/13 01:07:58;;;;;;;9.93;2.67;;;15.80;99.90;;;;;;5108435;28;20040;-66
2023/07/13 01:10:25;;;;;;;12.70;2.35;;;15.80;99.90;;;;;;5100397;27;20040;-65
2023/07/13 01:12:51;;;;;;;8.15;2.22;;;15.70;99.90;;;;;;5099556;27;20040;-64
2023/07/13 01:15:45;;;;;;;12.52;2.53;;;15.70;99.90;;;;;;5102429;27;20050;-66
2023/07/13 01:18:26;;;;;;;12.45;2.58;;;15.70;99.90;;;;;;5103844;27;20036;-66
2023/07/13 01:20:55;;;;;;;9.05;2.35;;;15.70;99.90;;;;;;5106203;27;20371;-66
2023/07/13 01:23:22;;;;;;;9.20;2.40;;;15.70;99.90;;;;;;5101239;27;20838;-65
2023/07/13 01:25:47;;;;;;;8.27;2.00;;;15.70;99.90;;;;;;5129704;27;20039;-65
2023/07/13 01:28:13;;;;;;;9.32;2.50;;;15.70;99.90;;;;;;5088245;27;20057;-65
2023/07/13 01:30:40;;;;;;;11.32;3.10;;;15.70;99.90;;;;;;5111730;27;20039;-65
2023/07/13 01:33:07;;;;;;;8.55;2.38;;;15.70;99.90;;;;;;5101907;27;20040;-64
2023/07/13 01:35:33;;;;;;;8.80;2.30;;;15.70;99.90;;;;;;5100696;27;20040;-66
2023/07/13 01:38:01;;;;;;;13.95;3.15;;;15.70;99.90;;;;;;5123304;27;20134;-65
2023/07/13 01:40:27;;;;;;;8.38;2.40;;;15.70;99.90;;;;;;5089234;28;20059;-65
2023/07/13 01:42:53;;;;;;;11.35;2.95;;;15.60;99.90;;;;;;5104738;28;20035;-64
2023/07/13 01:45:18;;;;;;;8.20;2.50;;;15.60;99.90;;;;;;5109564;27;20055;-66
2023/07/13 01:47:44;;;;;;;9.77;2.90;;;15.60;99.90;;;;;;5126405;27;20513;-65
2023/07/13 01:50:10;;;;;;;9.52;2.35;;;15.60;99.90;;;;;;5108339;28;20049;-65
2023/07/13 01:52:35;;;;;;;7.35;2.30;;;15.60;99.90;;;;;;5098848;28;20051;-64
2023/07/13 01:55:02;;;;;;;14.93;3.28;;;15.60;99.90;;;;;;5142592;27;20169;-65
2023/07/13 01:57:27;;;;;;;13.95;2.60;;;15.60;99.90;;;;;;5124263;27;20040;-66
2023/07/13 01:59:53;;;;;;;9.90;2.50;;;15.60;99.90;;;;;;5083789;28;20058;-65
2023/07/13 02:02:19;;;;;;;9.13;2.30;;;15.50;99.90;;;;;;5103317;28;20035;-64
2023/07/13 02:04:45;;;;;;;8.90;2.55;;;15.50;99.90;;;;;;5124388;27;21272;-64
2023/07/13 02:07:10;;;;;;;7.43;2.40;;;15.50;99.90;;;;;;5099521;28;20051;-65
2023/07/13 02:09:36;;;;;;;5.25;1.98;;;15.50;99.90;;;;;;5109120;28;20044;-65
2023/07/13 02:12:02;;;;;;;9.60;2.80;;;15.40;99.90;;;;;;5102799;27;20130;-66
2023/07/13 02:14:28;;;;;;;9.43;2.22;;;15.40;99.90;;;;;;5136806;27;20475;-65
2023/07/13 02:16:53;;;;;;;8.18;2.53;;;15.40;99.90;;;;;;5092862;27;20119;-66
2023/07/13 02:19:19;;;;;;;8.57;2.38;;;15.40;99.90;;;;;;5103499;27;20061;-66
2023/07/13 02:21:44;;;;;;;14.05;2.67;;;15.40;99.90;;;;;;5130789;27;20494;-65
2023/07/13 02:24:14;;;;;;;7.75;2.13;;;15.30;99.90;;;;;;5128559;27;20043;-66
2023/07/13 02:26:40;;;;;;;13.30;3.00;;;15.30;99.90;;;;;;5120685;27;20043;-66
2023/07/13 02:29:06;;;;;;;13.73;2.58;;;15.30;99.90;;;;;;5106878;27;20051;-66
2023/07/13 02:31:31;;;;;;;9.90;2.22;;;15.30;99.90;;;;;;5144981;27;20409;-65
2023/07/13 02:33:57;;;;;;;9.35;2.10;;;15.30;99.90;;;;;;5112096;28;20093;-65
2023/07/13 02:36:22;;;;;;;9.32;2.20;;;15.20;99.90;;;;;;5115234;27;20039;-65
2023/07/13 02:38:50;;;;;;;10.05;2.60;;;15.20;99.90;;;;;;5107656;27;20141;-66
2023/07/13 02:41:15;;;;;;;12.52;2.25;;;15.20;99.90;;;;;;5099868;27;20118;-66
2023/07/13 02:43:41;;;;;;;8.38;2.40;;;15.20;99.90;;;;;;5109924;28;20566;-66
2023/07/13 02:46:07;;;;;;;12.25;3.22;;;15.20;99.90;;;;;;5099774;27;20042;-65
2023/07/13 02:48:37;;;;;;;18.50;3.67;;;15.10;99.90;;;;;;5103896;27;20060;-65
2023/07/13 02:51:03;;;;;;;7.85;2.35;;;15.10;99.90;;;;;;5110096;27;20474;-65
2023/07/13 02:53:28;;;;;;;10.50;2.47;;;15.10;99.90;;;;;;5130866;27;20081;-65
2023/07/13 02:55:54;;;;;;;7.82;2.20;;;15.10;99.90;;;;;;5130514;27;20077;-66
2023/07/13 02:58:20;;;;;;;8.55;2.10;;;15.00;99.90;;;;;;5127977;27;20052;-65
2023/07/13 03:00:47;;;;;;;9.32;2.50;;;15.00;99.90;;;;;;5110871;27;20066;-66
2023/07/13 03:03:17;;;;;;;9.05;2.50;;;14.90;99.90;;;;;;5134558;27;20051;-66
2023/07/13 03:05:44;;;;;;;11.85;2.78;;;14.90;99.90;;;;;;5086701;27;20047;-65
2023/07/13 03:08:11;;;;;;;11.05;2.45;;;14.90;99.90;;;;;;5101328;27;20040;-65
2023/07/13 03:10:38;;;;;;;9.70;2.30;;;14.90;99.90;;;;;;5106061;27;20071;-66
2023/07/13 03:13:03;;;;;;;10.18;2.35;;;14.80;99.90;;;;;;5127973;27;20040;-65
2023/07/13 03:15:29;;;;;;;7.78;2.40;;;14.80;99.90;;;;;;5100688;27;20042;-66
2023/07/13 03:17:55;;;;;;;6.43;2.20;;;14.80;99.90;;;;;;5101472;27;20040;-64
2023/07/13 03:20:20;;;;;;;8.85;2.75;;;14.80;99.90;;;;;;5101770;27;20031;-66
2023/07/13 03:22:47;;;;;;;7.20;2.30;;;14.80;99.90;;;;;;5131812;27;20051;-66
2023/07/13 03:25:12;;;;;;;9.57;2.40;;;14.80;99.90;;;;;;5105534;27;20424;-66
2023/07/13 03:27:38;;;;;;;8.38;2.75;;;14.90;99.90;;;;;;5111673;27;20031;-66
2023/07/13 03:30:05;;;;;;;10.82;2.67;;;14.90;99.90;;;;;;5094651;28;20048;-64
2023/07/13 03:32:31;;;;;;;12.48;2.83;;;14.90;99.90;;;;;;5104740;27;20047;-65
2023/07/13 03:34:57;;;;;;;13.63;2.55;;;14.90;99.90;;;;;;5129599;27;20036;-64
2023/07/13 03:37:22;;;;;;;13.75;2.67;;;15.00;99.90;;;;;;5099794;27;20459;-65
2023/07/13 03:39:48;;;;;;;11.38;2.70;;;15.00;99.90;;;;;;5108119;27;20638;-65
2023/07/13 03:42:14;;;;;;;11.13;3.38;;;15.00;99.90;;;;;;5103059;27;20089;-66
2023/07/13 03:44:40;;;;;;;14.75;3.03;;;15.00;99.90;;;;;;5128658;27;20548;-65
2023/07/13 03:47:08;;;;;;;12.65;3.10;;;15.00;99.90;;;;;;5090584;28;20084;-67
2023/07/13 03:49:34;;;;;;;9.20;2.97;;;15.00;99.90;;;;;;5108616;27;20114;-64
2023/07/13 03:52:00;;;;;;;10.35;3.00;;;14.90;99.90;;;;;;5101657;27;20506;-65
2023/07/13 03:54:26;;;;;;;11.50;3.58;;;14.90;99.90;;;;;;5127316;27;20066;-65
2023/07/13 03:56:51;;;;;;;12.35;4.25;;;14.90;99.90;;;;;;5102148;27;20111;-66
2023/07/13 03:59:17;;;;;;;10.93;2.83;;;14.90;99.90;;;;;;5107028;27;20031;-65
2023/07/13 04:01:44;;;;;;;13.27;3.65;;;14.90;99.90;;;;;;5108897;27;20541;-65
2023/07/13 04:04:10;;;;;;;12.60;3.40;;;14.90;99.90;;;;;;5132505;27;20118;-65
2023/07/13 04:06:35;;;;;;;11.45;2.90;;;14.90;99.90;;;;;;5108549;27;20352;-65
2023/07/13 04:09:05;;;;;;;13.15;3.22;;;14.80;99.90;;;;;;5136509;27;20492;-64
2023/07/13 04:11:31;;;;;;;12.07;3.38;;;14.80;99.90;;;;;;5107893;27;20530;-66
2023/07/13 04:13:57;;;;;;;10.68;3.05;;;14.80;99.90;;;;;;5098928;27;20036;-65
2023/07/13 04:16:23;;;;;;;14.73;3.83;;;14.90;99.90;;;;;;5131188;27;20543;-65
2023/07/13 04:18:50;;;;;;;18.08;3.53;;;14.90;99.90;;;;;;5101660;27;20279;-64
2023/07/13 04:21:16;;;;;;;15.90;3.55;;;14.90;99.90;;;;;;5082384;27;20039;-65
2023/07/13 04:23:42;;;;;;;13.55;3.70;;;14.90;99.90;;;;;;5086797;28;20048;-65
2023/07/13 04:26:08;;;;;;;12.48;3.55;;;14.90;99.90;;;;;;5106165;27;20069;-65
2023/07/13 04:28:34;;;;;;;10.35;3.08;;;14.90;99.90;;;;;;5107974;27;20032;-65
2023/07/13 04:31:01;;;;;;;11.98;3.00;;;14.90;99.90;;;;;;5105842;27;20069;-65
2023/07/13 04:33:27;;;;;;;12.98;3.03;;;14.90;99.90;;;;;;5104379;27;20043;-65
2023/07/13 04:35:56;;;;;;;13.25;3.38;;;14.90;99.90;;;;;;5098415;27;20068;-65
2023/07/13 04:38:27;;;;;;;10.10;3.20;;;15.00;99.90;;;;;;5108722;28;20572;-64
2023/07/13 04:40:54;;;;;;;10.07;2.95;;;15.00;99.90;;;;;;5093028;28;20039;-65
2023/07/13 04:43:20;;;;;;;9.48;3.85;;;15.00;99.90;;;;;;5131583;27;20082;-65
2023/07/13 04:45:46;;;;;;;15.68;3.55;;;15.00;99.90;;;;;;5100218;27;20093;-65
2023/07/13 04:48:11;;;;;;;12.13;3.05;;;15.10;99.90;;;;;;5086469;27;20039;-65
2023/07/13 04:50:38;;;;;;;12.85;3.38;;;15.10;99.90;;;;;;5143773;27;20095;-65
2023/07/13 04:53:04;;;;;;;12.95;3.40;;;15.20;99.90;;;;;;5126878;27;20047;-63
2023/07/13 04:55:30;;;;;;;9.45;3.20;;;15.20;99.90;;;;;;5102977;27;20040;-65
2023/07/13 04:57:58;;;;;;;9.00;2.88;;;15.20;99.90;;;;;;5100068;27;20141;-66
2023/07/13 05:00:25;;;;;;;13.13;3.03;;;15.30;99.90;;;;;;5102305;27;20048;-64
2023/07/13 05:02:51;;;;;;;12.05;3.42;;;15.40;99.90;;;;;;5103005;27;20039;-67
2023/07/13 05:05:17;;;;;;;10.38;2.95;;;15.50;99.90;;;;;;5091538;28;20035;-66
2023/07/13 05:07:43;;;;;;;10.82;3.30;;;15.50;99.90;;;;;;5093719;27;20126;-65
2023/07/13 05:10:09;;;;;;;12.95;3.30;;;15.60;99.90;;;;;;5109668;28;20160;-64
2023/07/13 05:12:35;;;;;;;10.05;3.05;;;15.60;99.90;;;;;;5109956;28;20047;-64
2023/07/13 05:15:02;;;;;;;9.43;3.15;;;15.70;99.90;;;;;;5103532;27;20039;-63
2023/07/13 05:17:27;;;;;;;11.80;3.30;;;15.80;99.90;;;;;;5101784;27;20043;-63
2023/07/13 05:19:53;;;;;;;11.02;3.58;;;15.80;99.90;;;;;;5099431;27;20028;-64
2023/07/13 05:22:18;;;;;;;10.60;3.20;;;15.90;99.90;;;;;;5101383;27;20074;-64
2023/07/13 05:24:44;;;;;;;11.32;3.53;;;15.90;99.90;;;;;;5105622;27;20128;-66
2023/07/13 05:27:10;;;;;;;12.82;3.85;;;16.10;99.90;;;;;;5139157;27;20054;-65
2023/07/13 05:29:35;;;;;;;8.18;2.95;;;16.10;99.90;;;;;;5108792;28;20043;-66
2023/07/13 05:32:01;;;;;;;11.90;3.55;;;16.20;99.90;;;;;;5106619;28;20035;-65
2023/07/13 05:34:27;;;;;;;10.23;3.42;;;16.30;99.90;;;;;;5138191;27;20093;-65
2023/07/13 05:36:52;;;;;;;10.90;3.15;;;16.30;99.90;;;;;;5107137;28;20039;-65
2023/07/13 05:39:18;;;;;;;10.60;3.53;;;16.30;99.90;;;;;;5107188;28;20027;-66
2023/07/13 05:41:44;;;;;;;11.27;3.50;;;16.40;99.90;;;;;;5109875;27;20044;-65
2023/07/13 05:44:10;;;;;;;9.07;3.33;;;16.40;99.90;;;;;;5104543;28;20402;-65
2023/07/13 05:46:35;;;;;;;8.40;3.13;;;16.50;99.90;;;;;;5108526;28;20063;-66
2023/07/13 05:49:01;;;;;;;9.32;3.22;;;16.50;99.90;;;;;;5090100;28;20139;-65
2023/07/13 05:51:27;;;;;;;13.30;3.05;;;16.60;99.90;;;;;;5140662;27;20058;-66
2023/07/13 05:53:52;;;;;;;10.52;3.40;;;16.60;99.90;;;;;;5109387;28;20036;-64
2023/07/13 05:56:18;;;;;;;10.07;3.35;;;16.70;99.90;;;;;;5107216;28;20039;-65
2023/07/13 05:58:44;;;;;;;11.75;3.35;;;16.70;99.90;;;;;;5107413;28;20039;-66
2023/07/13 06:01:12;;;;;;;8.95;3.50;;;16.80;99.90;;;;;;5107167;28;20050;-67
2023/07/13 06:03:38;;;;;;;9.95;3.50;;;16.80;99.90;;;;;;5107772;28;20062;-66
2023/07/13 06:06:08;;;;;;;11.18;3.03;;;17.00;99.90;;;;;;5106518;28;20127;-66
2023/07/13 06:08:35;;;;;;;7.88;3.20;;;17.10;99.90;;;;;;5091448;28;20077;-65
2023/07/13 06:11:18;;;;;;;11.00;3.15;;;17.10;99.90;;;;;;5090967;28;20394;-67
2023/07/13 06:13:43;;;;;;;10.05;3.50;;;17.20;99.90;;;;;;5090857;28;20032;-65
2023/07/13 06:16:10;;;;;;;8.85;3.13;;;17.30;99.90;;;;;;5107130;28;20040;-66
2023/07/13 06:18:37;;;;;;;8.60;2.97;;;17.40;99.90;;;;;;5108123;28;20039;-65
2023/07/13 06:21:10;;;;;;;12.02;2.95;;;17.50;99.90;;;;;;5084034;28;20114;-65
2023/07/13 06:23:37;;;;;;;6.65;3.10;;;17.60;99.90;;;;;;5105413;28;20474;-66
2023/07/13 06:26:03;;;;;;;10.73;3.33;;;17.70;99.90;;;;;;5105855;28;20035;-65
2023/07/13 06:28:31;;;;;;;14.18;3.53;;;17.80;99.90;;;;;;5108466;28;20477;-65
2023/07/13 06:30:58;;;;;;;12.88;3.38;;;18.00;99.90;;;;;;5108788;28;20051;-65
2023/07/13 06:33:24;;;;;;;10.32;2.95;;;18.20;99.90;;;;;;5108751;28;20287;-65
2023/07/13 06:35:49;;;;;;;9.90;3.50;;;18.50;99.90;;;;;;5108353;28;20052;-64
2023/07/13 06:38:15;;;;;;;10.93;3.10;;;18.60;99.90;;;;;;5108505;28;20414;-66
2023/07/13 06:40:41;;;;;;;11.73;3.00;;;18.50;99.90;;;;;;5109965;28;20047;-67
2023/07/13 06:43:07;;;;;;;8.68;3.33;;;18.50;99.90;;;;;;5108609;28;20043;-64
2023/07/13 06:45:49;;;;;;;9.73;2.92;;;18.40;99.90;;;;;;5108293;28;20040;-65
2023/07/13 06:48:19;;;;;;;10.63;2.97;;;18.40;99.90;;;;;;5108851;28;20054;-65
2023/07/13 06:50:45;;;;;;;9.38;3.10;;;18.20;99.90;;;;;;5109192;28;20161;-65
2023/07/13 06:53:12;;;;;;;8.70;2.88;;;18.20;99.90;;;;;;5108545;28;20063;-66
2023/07/13 06:55:38;;;;;;;10.82;2.97;;;18.20;99.90;;;;;;5110408;28;20056;-66
2023/07/13 06:58:04;;;;;;;10.57;3.13;;;18.10;99.90;;;;;;5113780;28;20036;-64
2023/07/13 07:00:30;;;;;;;11.65;3.20;;;18.10;99.90;;;;;;5112538;28;20043;-65
2023/07/13 07:02:56;;;;;;;8.77;3.03;;;18.00;99.90;;;;;;5095129;28;20456;-66
2023/07/13 07:05:22;;;;;;;13.43;3.47;;;18.00;99.90;;;;;;5112160;28;20398;-66
2023/07/13 07:07:52;;;;;;;8.27;3.65;;;17.90;99.90;;;;;;5111548;28;20092;-64
2023/07/13 07:10:18;;;;;;;10.07;3.40;;;17.90;99.90;;;;;;5112155;28;20036;-66
2023/07/13 07:12:44;;;;;;;9.63;3.50;;;17.80;99.90;;;;;;5111651;28;20148;-65
2023/07/13 07:15:10;;;;;;;11.43;3.22;;;17.80;99.90;;;;;;5111838;28;20032;-63
2023/07/13 07:17:35;;;;;;;11.88;3.50;;;17.70;99.90;;;;;;5111582;28;20538;-65
2023/07/13 07:20:03;;;;;;;10.43;3.33;;;17.60;99.90;;;;;;5112111;28;20039;-66
2023/07/13 07:22:30;;;;;;;9.18;3.30;;;17.50;99.90;;;;;;5112225;28;20088;-64
2023/07/13 07:24:56;;;;;;;10.50;3.20;;;17.50;99.90;;;;;;5111960;28;20047;-65
2023/07/13 07:27:22;;;;;;;11.73;3.72;;;17.50;99.90;;;;;;5094728;28;20393;-67
2023/07/13 07:29:47;;;;;;;11.70;3.47;;;17.50;99.90;;;;;;5111642;28;20031;-65
2023/07/13 07:32:13;;;;;;;11.73;3.50;;;17.50;99.90;;;;;;5111396;28;20039;-66
2023/07/13 07:34:39;;;;;;;13.50;3.58;;;17.60;99.90;;;;;;5111348;28;20478;-66
2023/07/13 07:37:05;;;;;;;10.30;3.63;;;17.60;99.90;;;;;;5094856;28;20085;-66
2023/07/13 07:39:30;;;;;;;11.70;3.55;;;17.60;99.90;;;;;;5117825;27;20055;-66
2023/07/13 07:41:57;;;;;;;11.25;3.97;;;17.70;99.90;;;;;;5111875;28;20031;-66
2023/07/13 07:44:22;;;;;;;14.13;4.32;;;17.70;99.90;;;;;;5112233;28;20046;-67
2023/07/13 07:46:49;;;;;;;13.38;4.85;;;17.70;99.90;;;;;;5111146;28;20424;-64
2023/07/13 07:49:14;;;;;;;15.23;4.53;;;17.80;99.90;;;;;;5111080;28;20100;-64
2023/07/13 07:51:40;;;;;;;13.57;4.25;;;18.10;99.90;;;;;;5110884;28;20123;-66
2023/07/13 07:54:15;;;;;;;11.68;4.50;;;18.40;99.90;;;;;;5113593;28;20039;-65
2023/07/13 07:56:41;;;;;;;17.00;4.40;;;18.40;99.90;;;;;;5112838;28;20035;-67
2023/07/13 07:59:07;;;;;;;16.92;5.15;;;18.40;99.90;;;;;;5111889;28;20042;-66
2023/07/13 08:01:33;;;;;;;15.52;4.90;;;18.30;99.90;;;;;;5113109;28;20043;-68
2023/07/13 08:03:58;;;;;;;12.75;4.50;;;18.30;99.90;;;;;;5110908;28;20134;-68
2023/07/13 08:06:24;;;;;;;18.58;5.18;;;18.30;99.90;;;;;;5094095;28;20122;-67
2023/07/13 08:08:50;;;;;;;14.75;5.40;;;18.30;99.90;;;;;;5110616;28;20042;-67
2023/07/13 08:11:17;;;;;;;14.10;5.72;;;18.20;99.90;;;;;;5110605;28;20042;-67
2023/07/13 08:13:43;;;;;;;13.27;4.88;;;18.20;99.90;;;;;;5110876;28;20042;-68
2023/07/13 08:16:08;;;;;;;13.90;4.70;;;18.10;99.90;;;;;;5110799;28;20119;-67
2023/07/13 08:18:34;;;;;;;16.52;5.45;;;17.90;99.90;;;;;;5093348;28;20134;-67
2023/07/13 08:21:07;;;;;;;11.43;4.50;;;17.90;99.90;;;;;;5093121;28;20051;-67
2023/07/13 08:23:33;;;;;;;15.40;5.28;;;17.80;99.90;;;;;;5111092;28;20359;-68
2023/07/13 08:26:01;;;;;;;14.88;5.75;;;17.80;99.90;;;;;;5111603;28;20071;-67
2023/07/13 08:28:27;;;;;;;12.63;4.68;;;17.70;99.90;;;;;;5110256;28;20071;-68
2023/07/13 08:30:53;;;;;;;14.85;5.07;;;17.70;99.90;;;;;;5110882;28;20152;-68
2023/07/13 08:33:20;;;;;;;13.20;4.47;;;17.60;99.90;;;;;;5111300;28;20059;-68
2023/07/13 08:35:47;;;;;;;13.43;4.53;;;17.50;99.90;;;;;;5110633;28;20455;-66
2023/07/13 08:38:13;;;;;;;10.55;4.38;;;17.50;99.90;;;;;;5109804;28;20054;-68
2023/07/13 08:40:40;;;;;;;16.35;5.07;;;17.40;99.90;;;;;;5109957;28;20055;-66
2023/07/13 08:43:20;;;;;;;13.48;5.10;;;17.30;99.90;;;;;;5109930;28;20051;-67
2023/07/13 08:45:57;;;;;;;12.32;5.30;;;17.30;99.90;;;;;;5110245;28;20087;-67
2023/07/13 08:48:32;;;;;;;16.60;5.40;;;17.20;99.90;;;;;;5110115;28;20131;-67
2023/07/13 08:51:04;;;;;;;17.20;5.95;;;17.20;99.90;;;;;;5110430;28;20043;-67
2023/07/13 08:53:36;;;;;;;16.45;6.05;;;17.20;99.90;;;;;;5110168;28;20043;-66
2023/07/13 08:56:01;;;;;;;7.05;3.20;;;17.00;99.90;;;;;;5110178;28;20493;-67
2023/07/13 08:58:28;;;;;;;7.13;2.55;;;16.70;99.90;;;;;;5109735;28;20369;-68
2023/07/13 09:01:09;;;;;;;6.30;2.70;;;16.40;99.90;;;;;;5109305;28;20043;-67
2023/07/13 09:03:42;;;;;;;4.25;2.30;;;16.00;99.90;;;;;;5092525;28;20122;-67
2023/07/13 09:06:13;;;;;;;3.30;1.65;;;15.50;99.90;;;;;;5109400;28;20101;-67
2023/07/13 09:08:48;;;;;;;2.67;1.92;;;15.10;99.90;;;;;;5109190;28;20367;-67
2023/07/13 09:11:23;;;;;;;3.33;1.50;;;14.80;99.90;;;;;;5109531;28;20482;-68
2023/07/13 09:14:01;;;;;;;3.33;1.85;;;14.60;99.90;;;;;;5092451;28;20032;-68
2023/07/13 09:16:26;;;;;;;7.03;1.90;;;14.40;99.90;;;;;;5109392;28;20043;-68
2023/07/13 09:18:57;;;;;;;2.55;1.90;;;14.30;99.90;;;;;;5109749;28;20095;-67
2023/07/13 09:21:39;;;;;;;3.45;2.03;;;14.30;99.90;;;;;;5109221;28;20406;-67
2023/07/13 09:24:45;;;;;;;3.17;2.10;;;14.20;99.90;;;;;;5109337;28;20104;-67
2023/07/13 09:27:28;;;;;;;3.65;2.53;;;14.20;99.90;;;;;;5108870;28;20131;-67
2023/07/13 09:30:17;;;;;;;4.07;2.10;;;14.30;99.90;;;;;;5105432;28;20032;-68
2023/07/13 09:32:47;;;;;;;2.55;1.90;;;14.40;99.90;;;;;;5109882;28;20504;-68
2023/07/13 09:35:17;;;;;;;3.22;1.95;;;14.50;99.90;;;;;;5109057;28;20033;-67
2023/07/13 09:37:45;;;;;;;2.85;2.13;;;14.70;99.90;;;;;;5109219;28;20051;-67
2023/07/13 09:40:20;;;;;;;4.75;2.25;;;15.00;99.90;;;;;;5109537;28;20040;-66
2023/07/13 09:42:46;;;;;;;2.58;1.95;;;15.30;99.90;;;;;;5109026;28;20100;-66
2023/07/13 09:45:27;;;;;;;3.70;2.22;;;15.40;99.90;;;;;;5108793;28;20089;-68
2023/07/13 09:48:19;;;;;;;2.80;2.13;;;15.50;99.90;;;;;;5108979;28;20043;-66
2023/07/13 09:50:45;;;;;;;4.87;2.73;;;15.60;99.90;;;;;;5108649;28;20056;-66
2023/07/13 09:53:16;;;;;;;5.03;2.90;;;16.10;99.90;;;;;;5108980;28;20039;-67
2023/07/13 09:55:45;;;;;;;4.53;2.78;;;16.60;99.90;;;;;;5109212;28;20051;-66
2023/07/13 09:58:19;;;;;;;3.00;2.45;;;17.10;99.90;;;;;;5109218;28;20039;-67
2023/07/13 10:00:59;;;;;;;6.75;2.78;;;17.60;99.90;;;;;;5108771;28;20216;-68
2023/07/13 10:03:36;;;;;;;5.85;2.95;;;18.20;99.90;;;;;;5109122;28;20134;-66
2023/07/13 10:06:12;;;;;;;6.25;3.55;;;18.70;99.90;;;;;;5109664;28;20067;-66
2023/07/13 10:08:38;;;;;;;6.97;3.33;;;19.10;99.90;;;;;;5109008;28;20165;-65
2023/07/13 10:11:18;;;;;;;7.78;4.10;;;19.40;99.90;;;;;;5108631;28;20039;-67
2023/07/13 10:14:02;;;;;;;5.00;3.40;;;19.70;99.90;;;;;;5108847;28;20034;-65
2023/07/13 10:16:35;;;;;;;5.18;3.42;;;19.90;99.90;;;;;;5091409;28;20040;-66
2023/07/13 10:19:10;;;;;;;5.82;3.40;;;20.10;99.90;;;;;;5086042;28;20058;-67
2023/07/13 10:21:45;;;;;;;6.40;3.90;;;20.30;99.90;;;;;;5108835;28;20545;-68
2023/07/13 10:24:17;;;;;;;6.63;4.15;;;20.30;99.90;;;;;;5108777;28;20047;-65
2023/07/13 10:26:46;;;;;;;;;;;20.40;99.90;;;;;;5109013;28;20051;-67
2023/07/13 10:29:16;;;;;;;6.97;4.55;;;20.50;99.90;;;;;;5108562;28;19923;-67
2023/07/13 10:31:41;;;;;;;6.88;3.97;;;20.70;99.90;;;;;;5113210;28;20410;-66
2023/07/13 10:34:11;;;;;;;7.75;4.40;;;20.80;99.90;;;;;;5112878;28;20055;-67
2023/07/13 10:36:43;;;;;;;11.90;4.95;;;20.90;99.90;;;;;;5113217;28;20060;-68
2023/07/13 10:39:17;;;;;;;9.73;4.40;;;21.20;99.90;;;;;;5113025;28;20087;-66
2023/07/13 10:41:46;;;;;;;7.53;4.07;;;21.20;99.90;;;;;;5095410;28;20437;-67
2023/07/13 10:44:21;;;;;;;6.63;4.25;;;21.20;99.90;;;;;;5095286;28;20122;-67
2023/07/13 10:46:48;;;;;;;7.55;4.05;;;21.00;99.90;;;;;;5112974;28;20088;-67
2023/07/13 10:49:14;;;;;;;4.35;2.92;;;20.70;99.90;;;;;;5112663;28;20457;-68
2023/07/13 10:51:40;;;;;;;3.85;2.50;;;20.40;99.90;;;;;;5112062;28;20037;-68
2023/07/13 10:54:17;;;;;;;6.93;2.65;;;20.30;99.90;;;;;;5112260;28;20143;-67
2023/07/13 10:56:43;;;;;;;6.38;2.78;;;20.50;99.90;;;;;;5112405;28;20078;-67
2023/07/13 10:59:09;;;;;;;5.05;2.58;;;20.60;99.90;;;;;;5112889;28;20062;-67
2023/07/13 11:02:07;;;;;;;5.70;2.17;;;20.70;99.90;;;;;;5112593;28;20454;-67
2023/07/13 11:04:47;;;;;;;4.22;1.80;;;20.50;99.90;;;;;;5085208;28;20090;-67
2023/07/13 11:07:24;;;;;;;3.17;2.10;;;20.20;99.90;;;;;;5112723;28;20426;-67
2023/07/13 11:09:52;;;;;;;2.13;1.50;;;20.00;99.90;;;;;;5095734;28;20040;-67
2023/07/13 11:12:25;;;;;;;3.80;1.42;;;19.70;99.90;;;;;;5112262;28;20130;-68
2023/07/13 11:14:54;;;;;;;3.90;1.83;;;19.40;99.90;;;;;;5111957;28;20043;-67
2023/07/13 11:17:48;;;;;;;3.08;1.73;;;19.10;99.90;;;;;;5111798;28;20047;-67
2023/07/13 11:20:13;;;;;;;4.15;1.80;;;18.90;99.90;;;;;;5111622;28;20402;-66
2023/07/13 11:23:09;;;;;;;4.22;1.98;;;19.20;99.90;;;;;;5111712;28;20045;-67
2023/07/13 11:25:37;;;;;;;3.75;2.17;;;19.60;99.90;;;;;;5111738;28;20043;-67
2023/07/13 11:28:12;;;;;;;3.40;2.00;;;20.20;99.90;;;;;;5111607;28;20042;-67
2023/07/13 11:30:47;;;;;;;4.63;2.45;;;20.30;99.90;;;;;;5111907;28;20071;-65
2023/07/13 11:33:23;;;;;;;4.57;2.38;;;20.60;99.90;;;;;;5112446;28;20528;-66
2023/07/13 11:35:51;;;;;;;4.57;2.20;;;20.40;99.90;;;;;;5095446;28;20131;-67
2023/07/13 11:38:21;;;;;;;4.97;2.47;;;20.30;99.90;;;;;;5094526;28;20055;-65
2023/07/13 11:40:49;;;;;;;5.93;2.45;;;20.20;99.90;;;;;;5111864;28;20048;-67
2023/07/13 11:43:16;;;;;;;4.63;2.55;;;20.00;99.90;;;;;;5111598;28;20417;-66
2023/07/13 11:45:43;;;;;;;5.93;2.53;;;20.00;99.90;;;;;;5111547;28;20074;-67
2023/07/13 11:48:24;;;;;;;5.10;2.60;;;20.00;99.90;;;;;;5110659;28;20096;-67
2023/07/13 11:51:03;;;;;;;9.15;2.35;;;20.10;99.90;;;;;;5110884;28;20047;-67
2023/07/13 11:53:37;;;;;;;4.45;1.65;;;20.10;99.90;;;;;;5111027;28;20044;-67
2023/07/13 11:56:02;;;;;;;6.05;2.03;;;20.00;99.90;;;;;;5110876;28;20043;-67
2023/07/13 11:58:28;;;;;;;6.75;1.70;;;20.10;99.90;;;;;;5110905;28;20035;-66
2023/07/13 12:00:57;;;;;;;3.55;1.20;;;20.50;99.90;;;;;;5112336;28;20378;-67
2023/07/13 12:03:25;;;;;;;3.95;1.95;;;20.90;99.90;;;;;;5110809;28;20035;-67
2023/07/13 12:06:08;;;;;;;4.35;1.77;;;20.90;99.90;;;;;;5111121;28;20122;-67
2023/07/13 12:08:40;;;;;;;3.38;1.60;;;20.60;99.90;;;;;;5110806;28;20090;-67
2023/07/13 12:11:16;;;;;;;6.50;1.70;;;20.40;99.90;;;;;;5111974;28;20031;-67
2023/07/13 12:13:44;;;;;;;5.40;1.50;;;20.30;99.90;;;;;;5119853;27;20449;-67
2023/07/13 12:16:17;;;;;;;5.88;1.60;;;20.10;99.90;;;;;;5111599;28;20039;-66
2023/07/13 12:18:48;;;;;;;3.55;1.50;;;19.90;99.90;;;;;;5094474;28;20059;-68
2023/07/13 12:21:17;;;;;;;9.13;2.13;;;19.90;99.90;;;;;;5110377;28;20394;-66
2023/07/13 12:23:44;;;;;;;5.53;1.90;;;20.00;99.90;;;;;;5110812;28;20064;-67
2023/07/13 12:26:11;;;;;;;5.07;1.63;;;20.10;99.90;;;;;;5110661;28;20051;-66
2023/07/13 12:28:52;;;;;;;7.05;1.70;;;20.40;99.90;;;;;;5112186;27;20050;-67
2023/07/13 12:31:43;;;;;;;5.95;1.88;;;20.50;99.90;;;;;;5110679;28;20085;-65
2023/07/13 12:34:12;;;;;;;7.50;1.70;;;20.70;99.90;;;;;;5052101;28;20078;-66
2023/07/13 12:36:45;;;;;;;5.60;1.50;;;20.60;99.90;;;;;;5031838;28;20052;-68
2023/07/13 12:39:25;;;;;;;7.03;1.67;;;20.60;99.90;;;;;;5032317;28;20595;-68
2023/07/13 12:41:53;;;;;;;4.72;1.38;;;20.70;99.90;;;;;;5044801;28;20048;-66
2023/07/13 12:44:29;;;;;;;6.38;1.58;;;20.70;99.90;;;;;;5052351;28;20487;-67
2023/07/13 12:47:11;;;;;;;3.85;1.42;;;20.50;99.90;;;;;;5038885;28;20075;-67
2023/07/13 12:49:41;;;;;;;4.63;2.20;;;20.40;99.90;;;;;;5041985;28;20053;-66
2023/07/13 12:52:15;;;;;;;2.95;1.30;;;20.40;99.90;;;;;;5025874;28;20136;-66